Time,TemperatureF,DewpointF,PressureIn,WindDirection,WindDirectionDegrees,WindSpeedMPH,WindSpeedGustMPH,Humidity,HourlyPrecipIn,Conditions,Clouds,dailyrainin,SolarRadiationWatts/m^2,SoftwareType,DateUTC
2013-08-30 00:22:00,63.0,42.0,-100.00,SSE,165,1.0,3.0,46,-99.99,,,0.00,0.000000,,2013-08-30 06:22:00,
2013-08-30 00:32:00,63.0,42.0,-100.00,SSE,165,1.0,3.0,46,-99.99,,,0.00,0.000000,,2013-08-30 06:32:00,
2013-08-30 00:42:00,63.0,42.0,-100.00,SSE,165,1.0,3.0,46,-99.99,,,0.00,0.000000,,2013-08-30 06:42:00,
2013-08-30 00:53:00,63.0,42.0,-100.00,SSE,165,1.0,3.0,46,-99.99,,,0.00,0.000000,,2013-08-30 06:53:00,
2013-08-30 01:21:00,61.0,44.0,-100.00,SSW,207,0.0,4.0,53,0.00,,,0.00,0.000000,,2013-08-30 07:21:00,
2013-08-30 01:31:00,61.0,44.0,-100.00,SSW,207,0.0,4.0,53,0.00,,,0.00,0.000000,,2013-08-30 07:31:00,
2013-08-30 01:43:00,61.0,44.0,-100.00,SSW,207,0.0,4.0,53,0.00,,,0.00,0.000000,,2013-08-30 07:43:00,
2013-08-30 01:53:00,61.0,44.0,-100.00,SSW,207,0.0,4.0,53,0.00,,,0.00,0.000000,,2013-08-30 07:53:00,
2013-08-30 02:22:00,60.0,44.0,-100.00,SSE,147,0.0,3.0,55,0.00,,,0.00,0.000000,,2013-08-30 08:22:00,
2013-08-30 02:32:00,60.0,44.0,-100.00,SSE,147,0.0,3.0,55,0.00,,,0.00,0.000000,,2013-08-30 08:32:00,
2013-08-30 02:42:00,60.0,44.0,-100.00,SSE,147,0.0,3.0,55,0.00,,,0.00,0.000000,,2013-08-30 08:42:00,
2013-08-30 02:52:00,60.0,44.0,-100.00,SSE,147,0.0,3.0,55,0.00,,,0.00,0.000000,,2013-08-30 08:52:00,
2013-08-30 03:22:00,59.0,44.0,-100.00,South,170,1.0,4.0,57,0.00,,,0.00,0.000000,,2013-08-30 09:22:00,
2013-08-30 03:33:00,59.0,44.0,-100.00,South,170,1.0,4.0,57,0.00,,,0.00,0.000000,,2013-08-30 09:33:00,
2013-08-30 03:44:00,59.0,44.0,-100.00,South,170,1.0,4.0,57,0.00,,,0.00,0.000000,,2013-08-30 09:44:00,
2013-08-30 03:53:00,59.0,44.0,-100.00,South,170,1.0,4.0,57,0.00,,,0.00,0.000000,,2013-08-30 09:53:00,
2013-08-30 04:23:00,58.0,44.0,-100.00,South,191,2.0,5.0,59,0.00,,,0.00,0.000000,,2013-08-30 10:23:00,
2013-08-30 04:32:00,58.0,44.0,-100.00,South,191,2.0,5.0,59,0.00,,,0.00,0.000000,,2013-08-30 10:32:00,
2013-08-30 04:43:00,58.0,44.0,-100.00,South,191,2.0,5.0,59,0.00,,,0.00,0.000000,,2013-08-30 10:43:00,
2013-08-30 04:53:00,58.0,44.0,-100.00,South,191,2.0,5.0,59,0.00,,,0.00,0.000000,,2013-08-30 10:53:00,
2013-08-30 05:22:00,57.0,44.0,-100.00,East,97,1.0,3.0,62,0.00,,,0.00,0.000000,,2013-08-30 11:22:00,
2013-08-30 05:32:00,57.0,44.0,-100.00,East,97,1.0,3.0,62,0.00,,,0.00,0.000000,,2013-08-30 11:32:00,
2013-08-30 05:42:00,57.0,44.0,-100.00,East,97,1.0,3.0,62,0.00,,,0.00,0.000000,,2013-08-30 11:42:00,
2013-08-30 05:52:00,57.0,44.0,-100.00,East,97,1.0,3.0,62,0.00,,,0.00,0.000000,,2013-08-30 11:52:00,
2013-08-30 06:21:00,56.0,44.0,-100.00,ESE,102,0.0,2.0,64,0.00,,,0.00,0.000000,,2013-08-30 12:21:00,
2013-08-30 06:32:00,56.0,44.0,-100.00,ESE,102,0.0,2.0,64,0.00,,,0.00,0.000000,,2013-08-30 12:32:00,
2013-08-30 06:42:00,56.0,44.0,-100.00,ESE,102,0.0,2.0,64,0.00,,,0.00,0.000000,,2013-08-30 12:42:00,
2013-08-30 06:52:00,56.0,44.0,-100.00,ESE,102,0.0,2.0,64,0.00,,,0.00,0.000000,,2013-08-30 12:52:00,
2013-08-30 07:42:00,55.0,43.0,-100.00,ESE,112,0.0,1.0,64,-99.99,,,0.00,0.000000,,2013-08-30 13:42:00,
2013-08-30 07:52:00,55.0,43.0,-100.00,ESE,112,0.0,1.0,64,-99.99,,,0.00,0.000000,,2013-08-30 13:52:00,
2013-08-30 08:21:00,55.0,44.0,-100.00,ESE,120,0.0,2.0,67,0.00,,,-99.99,13.000000,,2013-08-30 14:21:00,
2013-08-30 08:31:00,55.0,44.0,-100.00,ESE,120,0.0,2.0,67,0.00,,,-99.99,13.000000,,2013-08-30 14:31:00,
2013-08-30 08:42:00,55.0,44.0,-100.00,ESE,120,0.0,2.0,67,0.00,,,-99.99,13.000000,,2013-08-30 14:42:00,
2013-08-30 09:22:00,58.0,45.0,-100.00,SW,225,0.0,2.0,62,0.00,,,0.00,68.000000,,2013-08-30 15:22:00,
2013-08-30 09:33:00,58.0,45.0,-100.00,SW,225,0.0,2.0,62,0.00,,,0.00,68.000000,,2013-08-30 15:33:00,
2013-08-30 09:43:00,58.0,45.0,-100.00,SW,225,0.0,2.0,62,0.00,,,0.00,68.000000,,2013-08-30 15:43:00,
2013-08-30 09:54:00,58.0,45.0,-100.00,SW,225,0.0,2.0,62,0.00,,,0.00,68.000000,,2013-08-30 15:54:00,
2013-08-30 10:24:00,61.0,46.0,-100.00,SW,235,1.0,4.0,58,0.00,,,0.00,68.000000,,2013-08-30 16:24:00,
2013-08-30 10:33:00,61.0,46.0,-100.00,SW,235,1.0,4.0,58,0.00,,,0.00,68.000000,,2013-08-30 16:33:00,
2013-08-30 10:43:00,61.0,46.0,-100.00,SW,235,1.0,4.0,58,0.00,,,0.00,68.000000,,2013-08-30 16:43:00,
2013-08-30 10:53:00,61.0,46.0,-100.00,SW,235,1.0,4.0,58,0.00,,,0.00,68.000000,,2013-08-30 16:53:00,
2013-08-30 11:23:00,67.0,47.0,-100.00,West,278,2.0,4.0,49,0.00,,,0.00,417.000000,,2013-08-30 17:23:00,
2013-08-30 11:34:00,67.0,47.0,-100.00,West,278,2.0,4.0,49,0.00,,,0.00,417.000000,,2013-08-30 17:34:00,
2013-08-30 11:42:00,67.0,47.0,-100.00,West,278,2.0,4.0,49,0.00,,,0.00,417.000000,,2013-08-30 17:42:00,
2013-08-30 11:52:00,67.0,47.0,-100.00,West,278,2.0,4.0,49,0.00,,,0.00,417.000000,,2013-08-30 17:52:00,
2013-08-30 12:21:00,71.0,45.0,-100.00,West,265,3.0,7.0,39,0.00,,,0.00,680.000000,,2013-08-30 18:21:00,
2013-08-30 12:32:00,71.0,45.0,-100.00,West,265,3.0,7.0,39,0.00,,,0.00,680.000000,,2013-08-30 18:32:00,
2013-08-30 12:42:00,71.0,45.0,-100.00,West,265,3.0,7.0,39,0.00,,,0.00,680.000000,,2013-08-30 18:42:00,
2013-08-30 12:52:00,71.0,45.0,-100.00,West,265,3.0,7.0,39,0.00,,,0.00,680.000000,,2013-08-30 18:52:00,
2013-08-30 13:21:00,74.0,45.0,-100.00,West,276,4.0,8.0,35,0.00,,,0.00,782.000000,,2013-08-30 19:21:00,
2013-08-30 13:32:00,74.0,45.0,-100.00,West,276,4.0,8.0,35,0.00,,,0.00,782.000000,,2013-08-30 19:32:00,
2013-08-30 13:42:00,74.0,45.0,-100.00,West,276,4.0,8.0,35,0.00,,,0.00,782.000000,,2013-08-30 19:42:00,
2013-08-30 13:53:00,74.0,45.0,-100.00,West,276,4.0,8.0,35,0.00,,,0.00,782.000000,,2013-08-30 19:53:00,
2013-08-30 14:22:00,77.0,43.0,-100.00,West,275,3.0,9.0,30,0.00,,,0.00,833.000000,,2013-08-30 20:22:00,
2013-08-30 14:32:00,77.0,43.0,-100.00,West,275,3.0,9.0,30,0.00,,,0.00,833.000000,,2013-08-30 20:32:00,
2013-08-30 14:43:00,77.0,43.0,-100.00,West,275,3.0,9.0,30,0.00,,,0.00,833.000000,,2013-08-30 20:43:00,
2013-08-30 14:52:00,77.0,43.0,-100.00,West,275,3.0,9.0,30,0.00,,,0.00,833.000000,,2013-08-30 20:52:00,
2013-08-30 15:21:00,80.0,39.0,-100.00,West,267,4.0,11.0,23,0.00,,,0.00,821.000000,,2013-08-30 21:21:00,
2013-08-30 15:34:00,80.0,39.0,-100.00,West,267,4.0,11.0,23,0.00,,,0.00,821.000000,,2013-08-30 21:34:00,
2013-08-30 15:44:00,80.0,39.0,-100.00,West,267,4.0,11.0,23,0.00,,,0.00,821.000000,,2013-08-30 21:44:00,
2013-08-30 15:54:00,80.0,39.0,-100.00,West,267,4.0,11.0,23,0.00,,,0.00,821.000000,,2013-08-30 21:54:00,
2013-08-30 16:24:00,80.0,38.0,-100.00,West,279,3.0,11.0,22,0.00,,,0.00,758.000000,,2013-08-30 22:24:00,
2013-08-30 16:33:00,80.0,38.0,-100.00,West,279,3.0,11.0,22,0.00,,,0.00,758.000000,,2013-08-30 22:33:00,
2013-08-30 16:43:00,80.0,38.0,-100.00,West,279,3.0,11.0,22,0.00,,,0.00,758.000000,,2013-08-30 22:43:00,
2013-08-30 16:54:00,80.0,38.0,-100.00,West,279,3.0,11.0,22,0.00,,,0.00,758.000000,,2013-08-30 22:54:00,
2013-08-30 17:22:00,81.0,40.0,-100.00,West,266,3.0,10.0,23,0.00,,,0.00,639.000000,,2013-08-30 23:22:00,
2013-08-30 17:33:00,81.0,40.0,-100.00,West,266,3.0,10.0,23,0.00,,,0.00,639.000000,,2013-08-30 23:33:00,
2013-08-30 17:42:00,81.0,40.0,-100.00,West,266,3.0,10.0,23,0.00,,,0.00,639.000000,,2013-08-30 23:42:00,
2013-08-30 17:53:00,81.0,40.0,-100.00,West,266,3.0,10.0,23,0.00,,,0.00,639.000000,,2013-08-30 23:53:00,
2013-08-30 18:21:00,80.0,40.0,-100.00,West,272,3.0,11.0,24,0.00,,,0.00,481.000000,,2013-08-31 00:21:00,
2013-08-30 18:32:00,80.0,40.0,-100.00,West,272,3.0,11.0,24,0.00,,,0.00,481.000000,,2013-08-31 00:32:00,
2013-08-30 18:42:00,80.0,40.0,-100.00,West,272,3.0,11.0,24,0.00,,,0.00,481.000000,,2013-08-31 00:42:00,
2013-08-30 18:52:00,80.0,40.0,-100.00,West,272,3.0,11.0,24,0.00,,,0.00,481.000000,,2013-08-31 00:52:00,
2013-08-30 19:21:00,76.0,41.0,-100.00,West,277,3.0,7.0,28,0.00,,,0.00,180.000000,,2013-08-31 01:21:00,
2013-08-30 19:32:00,76.0,41.0,-100.00,West,277,3.0,7.0,28,0.00,,,0.00,180.000000,,2013-08-31 01:32:00,
2013-08-30 19:42:00,76.0,41.0,-100.00,West,277,3.0,7.0,28,0.00,,,0.00,180.000000,,2013-08-31 01:42:00,
2013-08-30 19:52:00,76.0,41.0,-100.00,West,277,3.0,7.0,28,0.00,,,0.00,180.000000,,2013-08-31 01:52:00,
2013-08-30 20:22:00,73.0,41.0,-100.00,West,275,2.0,7.0,31,0.00,,,0.00,35.000000,,2013-08-31 02:22:00,
2013-08-30 20:32:00,73.0,41.0,-100.00,West,275,2.0,7.0,31,0.00,,,0.00,35.000000,,2013-08-31 02:32:00,
2013-08-30 20:42:00,73.0,41.0,-100.00,West,275,2.0,7.0,31,0.00,,,0.00,35.000000,,2013-08-31 02:42:00,
2013-08-30 20:52:00,73.0,41.0,-100.00,West,275,2.0,7.0,31,0.00,,,0.00,35.000000,,2013-08-31 02:52:00,
2013-08-30 21:22:00,69.0,39.0,-100.00,NNW,336,0.0,4.0,33,0.00,,,0.00,7.000000,,2013-08-31 03:22:00,
2013-08-30 21:34:00,69.0,39.0,-100.00,NNW,336,0.0,4.0,33,0.00,,,0.00,7.000000,,2013-08-31 03:34:00,
2013-08-30 21:44:00,69.0,39.0,-100.00,NNW,336,0.0,4.0,33,0.00,,,0.00,7.000000,,2013-08-31 03:44:00,
2013-08-30 21:54:00,69.0,39.0,-100.00,NNW,336,0.0,4.0,33,0.00,,,0.00,7.000000,,2013-08-31 03:54:00,
2013-08-30 22:24:00,67.0,40.0,-100.00,SW,217,0.0,2.0,37,0.00,,,0.00,0.000000,,2013-08-31 04:24:00,
2013-08-30 22:34:00,67.0,40.0,-100.00,SW,217,0.0,2.0,37,0.00,,,0.00,0.000000,,2013-08-31 04:34:00,
2013-08-30 22:44:00,67.0,40.0,-100.00,SW,217,0.0,2.0,37,0.00,,,0.00,0.000000,,2013-08-31 04:44:00,
2013-08-30 22:54:00,67.0,40.0,-100.00,SW,217,0.0,2.0,37,0.00,,,0.00,0.000000,,2013-08-31 04:54:00,
2013-08-30 23:23:00,63.0,40.0,-100.00,West,263,1.0,3.0,43,0.00,,,0.00,0.000000,,2013-08-31 05:23:00,
2013-08-30 23:34:00,63.0,40.0,-100.00,West,263,1.0,3.0,43,0.00,,,0.00,0.000000,,2013-08-31 05:34:00,
2013-08-30 23:42:00,63.0,40.0,-100.00,West,263,1.0,3.0,43,0.00,,,0.00,0.000000,,2013-08-31 05:42:00,
2013-08-30 23:52:00,63.0,40.0,-100.00,West,263,1.0,3.0,43,0.00,,,0.00,0.000000,,2013-08-31 05:52:00,